Flight Track Log - Related Links

Times and Time Zones

All times are in EDT time to prevent confusion due to time zone crossing. See the AAL621 flight status page for this flight to view local times or setup timezone preferences in your user account.

Time Position Orientation Groundspeed Altitude Reporting Facility
EDT Latitude Longitude Course Direction KTS MPH feet Rate Location/Type
Mon 12:19:14 PM 32.9210 -97.0510 North 169 194 1,500  Level FlightAware ADS-B
Mon 12:19:22 PM 32.9280 -97.0510 360° North 172 198 1,800 1,500 Climbing FlightAware ADS-B
Mon 12:19:42 PM 32.9460 -97.0560 347° North 194 223 2,200 1,050 Climbing FlightAware ADS-B
Mon 12:20:02 PM 32.9640 -97.0620 344° North 214 246 2,500 882 Climbing FlightAware ADS-B
Mon 12:20:16 PM 32.9780 -97.0660 347° North 230 265 2,700 1,286 Climbing FlightAware ADS-B
Mon 12:20:30 PM 32.9940 -97.0710 345° North 247 284 3,100 1,313 Climbing FlightAware ADS-B
Mon 12:20:48 PM 33.0140 -97.0740 353° North 265 305 3,400 1,588 Climbing FlightAware ADS-B
Mon 12:21:04 PM 33.0330 -97.0750 357° North 270 311 4,000 2,400 Climbing FlightAware ADS-B
Mon 12:21:28 PM 33.0640 -97.0770 357° North 270 311 5,000 2,500 Climbing FlightAware ADS-B
Mon 12:21:52 PM 33.0950 -97.0790 357° North 271 312 6,000 2,455 Climbing FlightAware ADS-B
Mon 12:22:12 PM 33.1190 -97.0810 356° North 274 315 6,800 2,550 Climbing FlightAware ADS-B
Mon 12:22:32 PM 33.1450 -97.0830 356° North 275 316 7,700 2,700 Climbing FlightAware ADS-B
Mon 12:22:52 PM 33.1710 -97.0850 356° North 276 318 8,600 2,595 Climbing FlightAware ADS-B
Mon 12:23:09 PM 33.1910 -97.0870 355° North 276 318 9,300 2,375 Climbing FlightAware ADS-B
Mon 12:23:40 PM 33.2320 -97.0910 355° North 289 333 10,500 1,612 Climbing FlightAware ADS-B
Mon 12:24:16 PM 33.2850 -97.0950 356° North 333 383 11,100 1,622 Climbing FlightAware ADS-B
Mon 12:24:54 PM 33.3460 -97.1000 356° North 347 399 12,500 2,417 Climbing FlightAware ADS-B
Mon 12:25:28 PM 33.3990 -97.1040 356° North 351 404 14,000 2,559 Climbing FlightAware ADS-B
Mon 12:26:02 PM 33.4570 -97.1080 357° North 360 414 15,400 2,382 Climbing FlightAware ADS-B
Mon 12:26:36 PM 33.5140 -97.1130 356° North 371 427 16,700 2,471 Climbing FlightAware ADS-B
Mon 12:27:10 PM 33.5710 -97.1170 357° North 373 429 18,200 2,435 Climbing FlightAware ADS-B
Mon 12:27:45 PM 33.6320 -97.1220 356° North 378 435 19,500 2,197 Climbing FlightAware ADS-B
Mon 12:28:21 PM 33.6980 -97.1270 356° North 386 444 20,800 2,083 Climbing FlightAware ADS-B
Mon 12:28:57 PM 33.7630 -97.1320 356° North 394 453 22,000 2,000 Climbing FlightAware ADS-B
Mon 12:29:30 PM 33.8240 -97.1370 356° North 399 459 23,100 1,853 Climbing FlightAware ADS-B
Mon 12:30:05 PM 33.8860 -97.1420 356° North 407 468 24,100 1,667 Climbing FlightAware ADS-B
Mon 12:30:42 PM 33.9550 -97.1480 356° North 415 478 25,100 1,629 Climbing FlightAware ADS-B
Mon 12:31:15 PM 34.0200 -97.1540 356° North 418 481 26,000 1,612 Climbing FlightAware ADS-B
Mon 12:31:49 PM 34.0860 -97.1590 356° North 425 489 26,900 1,437 Climbing FlightAware ADS-B
Mon 12:32:26 PM 34.1590 -97.1640 357° North 432 497 27,700 1,297 Climbing FlightAware ADS-B
Mon 12:33:03 PM 34.2310 -97.1990 338° Northwest 446 513 28,500 1,176 Climbing FlightAware ADS-B
Mon 12:33:17 PM 34.2510 -97.2260 312° West 452 520 28,700 750 Climbing FlightAware ADS-B
Mon 12:33:43 PM 34.2860 -97.2780 309° West 458 527 29,000 261 Climbing FlightAware ADS-B
Mon 12:34:26 PM 34.3430 -97.3620 309° West 459 528 29,000  Level FlightAware ADS-B
Mon 12:35:01 PM 34.3900 -97.4320 309° West 458 527 29,000  Level FlightAware ADS-B
Mon 12:35:34 PM 34.4330 -97.4970 309° West 456 525 29,000 85 Level FlightAware ADS-B
Mon 12:36:12 PM 34.4850 -97.5740 309° West 460 529 29,100 592 Climbing FlightAware ADS-B
Mon 12:36:45 PM 34.5300 -97.6410 309° West 467 537 29,700 1,059 Climbing FlightAware ADS-B
Mon 12:37:20 PM 34.5770 -97.7120 309° West 473 544 30,300 1,333 Climbing FlightAware ADS-B
Mon 12:37:57 PM 34.6280 -97.7880 309° West 470 541 31,300 1,629 Climbing FlightAware ADS-B
Mon 12:38:30 PM 34.6720 -97.8550 309° West 464 534 32,200 1,545 Climbing FlightAware ADS-B
Mon 12:39:03 PM 34.7160 -97.9210 309° West 460 529 33,000 1,521 Climbing FlightAware ADS-B
Mon 12:39:41 PM 34.7680 -97.9980 309° West 457 526 34,000 1,437 Climbing FlightAware ADS-B
Mon 12:40:14 PM 34.8110 -98.0640 308° West 455 524 34,700 1,200 Climbing FlightAware ADS-B
Mon 12:40:51 PM 34.8590 -98.1370 309° West 453 521 35,400 1,151 Climbing FlightAware ADS-B
Mon 12:41:27 PM 34.9070 -98.2100 309° West 451 519 36,100 1,130 Climbing FlightAware ADS-B
Mon 12:42:00 PM 34.9500 -98.2750 309° West 450 518 36,700 1,031 Climbing FlightAware ADS-B
Mon 12:42:31 PM 34.9900 -98.3350 309° West 448 516 37,200 1,075 Climbing FlightAware ADS-B
Mon 12:43:07 PM 35.0360 -98.4070 308° West 444 511 37,900 640 Climbing FlightAware ADS-B
Mon 12:43:46 PM 35.0870 -98.4830 309° West 444 511 38,000 83 Climbing FlightAware ADS-B
Mon 12:44:19 PM 35.1280 -98.5470 308° West 442 509 38,000  Level FlightAware ADS-B
Mon 12:44:54 PM 35.1720 -98.6140 309° West 442 509 38,000  Level FlightAware ADS-B
Mon 12:45:30 PM 35.2190 -98.6860 309° West 442 509 38,000  Level FlightAware ADS-B
Mon 12:46:03 PM 35.2600 -98.7500 308° West 442 509 38,000  Level FlightAware ADS-B
Mon 12:46:43 PM 35.3100 -98.8270 309° West 444 511 38,000  Level FlightAware ADS-B
Mon 12:47:15 PM 35.3520 -98.8910 309° West 445 512 38,000  Level FlightAware ADS-B
Mon 12:47:51 PM 35.3990 -98.9640 308° West 445 512 38,000  Level FlightAware ADS-B
Mon 12:48:25 PM 35.4420 -99.0320 308° West 445 512 38,000  Level FlightAware ADS-B
Mon 12:49:01 PM 35.4870 -99.1010 309° West 446 513 38,000  Level FlightAware ADS-B
Mon 12:49:33 PM 35.5280 -99.1650 308° West 446 513 38,000  Level FlightAware ADS-B
Mon 12:50:10 PM 35.5750 -99.2390 308° West 446 513 38,000  Level FlightAware ADS-B
Mon 12:50:46 PM 35.6220 -99.3120 308° West 445 512 38,000  Level FlightAware ADS-B
Mon 12:51:19 PM 35.6630 -99.3770 308° West 444 511 38,000  Level FlightAware ADS-B
Mon 12:51:54 PM 35.7070 -99.4470 308° West 442 509 38,000  Level FlightAware ADS-B
Mon 12:52:29 PM 35.7460 -99.5150 305° West 444 511 38,000  Level FlightAware ADS-B
Mon 12:53:05 PM 35.7880 -99.5960 303° West 443 510 38,000  Level FlightAware ADS-B
Mon 12:53:40 PM 35.8270 -99.6680 304° West 444 511 38,000  Level FlightAware ADS-B
Mon 12:54:17 PM 35.8680 -99.7470 303° West 444 511 38,000  Level FlightAware ADS-B
Mon 12:54:52 PM 35.9070 -99.8210 303° West 445 512 38,000  Level FlightAware ADS-B
Mon 12:55:24 PM 35.9420 -99.8890 302° West 445 512 38,000  Level FlightAware ADS-B
Mon 12:56:01 PM 35.9830 -99.9680 303° West 447 514 38,000  Level FlightAware ADS-B
Mon 12:56:35 PM 36.0190 -100.0470 299° West 451 519 38,000  Level FlightAware ADS-B
Mon 12:57:08 PM 36.0480 -100.1200 296° West 450 518 38,000  Level FlightAware ADS-B
Mon 12:57:46 PM 36.0830 -100.2070 296° West 450 518 38,000  Level FlightAware ADS-B
Mon 12:58:22 PM 36.1160 -100.2920 296° West 450 518 38,000  Level FlightAware ADS-B
Mon 12:58:56 PM 36.1470 -100.3700 296° West 451 519 38,000  Level FlightAware ADS-B
Mon 12:59:33 PM 36.1820 -100.4580 296° West 450 518 38,000  Level FlightAware ADS-B
Mon 01:00:08 PM 36.2120 -100.5360 296° West 445 512 38,000  Level FlightAware ADS-B
Mon 01:00:41 PM 36.2420 -100.6130 296° West 446 513 38,000  Level FlightAware ADS-B
Mon 01:01:17 PM 36.2750 -100.6960 296° West 446 513 38,000  Level FlightAware ADS-B
Mon 01:01:54 PM 36.3080 -100.7800 296° West 446 513 38,000  Level FlightAware ADS-B
Mon 01:02:27 PM 36.3370 -100.8550 296° West 447 514 38,000  Level FlightAware ADS-B
Mon 01:02:57 PM 36.3630 -100.9220 296° West 445 512 38,000  Level FlightAware ADS-B
Mon 01:03:44 PM 36.4050 -101.0300 296° West 444 511 38,000  Level FlightAware ADS-B
Mon 01:04:28 PM 36.4420 -101.1270 295° West 444 511 38,000  Level FlightAware ADS-B
Mon 01:05:04 PM 36.4680 -101.1980 295° West 444 511 38,000  Level FlightAware ADS-B
Mon 01:05:40 PM 36.4950 -101.2680 296° West 444 511 38,000  Level FlightAware ADS-B
Mon 01:06:17 PM 36.5220 -101.3410 295° West 444 511 38,000  Level FlightAware ADS-B
Mon 01:06:53 PM 36.5480 -101.4120 295° West 444 511 38,000  Level FlightAware ADS-B
Mon 01:07:29 PM 36.5750 -101.4830 295° West 444 511 38,000  Level FlightAware ADS-B
Mon 01:08:05 PM 36.6020 -101.5540 295° West 444 511 38,000  Level FlightAware ADS-B
Mon 01:08:42 PM 36.6290 -101.6270 295° West 444 511 38,000  Level FlightAware ADS-B
Mon 01:09:18 PM 36.6550 -101.6980 295° West 444 511 38,000  Level FlightAware ADS-B
Mon 01:09:55 PM 36.6830 -101.7710 296° West 444 511 38,000  Level FlightAware ADS-B
Mon 01:10:31 PM 36.7090 -101.8420 295° West 444 511 38,000  Level FlightAware ADS-B
Mon 01:11:32 PM 36.7540 -101.9630 295° West 444 511 38,000  Level FlightAware ADS-B
Mon 01:12:08 PM 36.7810 -102.0340 295° West 444 511 38,000  Level FlightAware ADS-B
Mon 01:12:42 PM 36.8060 -102.1010 295° West 444 511 38,000  Level FlightAware ADS-B
Mon 01:13:17 PM 36.8320 -102.1700 295° West 444 511 38,000  Level FlightAware ADS-B
Mon 01:13:53 PM 36.8580 -102.2410 295° West 444 511 38,000  Level FlightAware ADS-B
Mon 01:14:23 PM 36.9519 -102.4797 295° West 442 509 38,000  Level Kansas City Center
Mon 01:15:23 PM 37.0047 -102.6253 294° West 439 505 38,000  Level Albuquerque Center
Mon 01:16:25 PM 37.0542 -102.7564 295° West 437 503 38,000  Level Albuquerque Center
Mon 01:17:27 PM 37.1106 -102.9103 295° West 435 501 38,000  Level Albuquerque Center
Mon 01:18:29 PM 37.1594 -103.0433 295° West 437 503 38,000  Level Albuquerque Center
Mon 01:19:30 PM 37.2150 -103.1992 294° West 438 504 38,000  Level Albuquerque Center
Mon 01:20:32 PM 37.2633 -103.3331 294° West 439 505 38,000  Level Albuquerque Center
Mon 01:21:34 PM 37.3192 -103.4894 294° West 440 506 38,000  Level Albuquerque Center
Mon 01:22:36 PM 37.3678 -103.6225 295° West 438 504 38,000  Level Albuquerque Center
Mon 01:28:23 PM 37.8300 -104.3120 295° West 434 499 38,000  Level FlightAware ADS-B
Mon 01:28:59 PM 37.8770 -104.3810 311° West 435 501 38,000  Level FlightAware ADS-B
Mon 01:29:33 PM 37.9220 -104.4470 311° West 435 501 38,000  Level FlightAware ADS-B
Mon 01:30:03 PM 37.9610 -104.5060 310° West 434 499 38,000  Level FlightAware ADS-B
Mon 01:30:41 PM 38.0110 -104.5800 311° West 434 499 38,000  Level FlightAware ADS-B
Mon 01:31:19 PM 38.0520 -104.6430 310° West 434 499 38,000  Level FlightAware ADS-B
Mon 01:31:56 PM 38.0930 -104.7050 310° West 434 499 38,000  Level FlightAware ADS-B
Mon 01:32:31 PM 38.1540 -104.7950 311° West 437 503 38,000  Level FlightAware ADS-B
Mon 01:33:01 PM 38.1940 -104.8550 310° West 439 505 38,000  Level FlightAware ADS-B
Mon 01:33:39 PM 38.2420 -104.9270 310° West 440 506 38,000  Level FlightAware ADS-B
Mon 01:34:15 PM 38.2900 -105.0010 310° West 442 509 38,000  Level FlightAware ADS-B
Mon 01:34:52 PM 38.3380 -105.0720 311° West 442 509 38,000  Level FlightAware ADS-B
Mon 01:35:23 PM 38.3800 -105.1370 310° West 442 509 38,000  Level FlightAware ADS-B
Mon 01:35:59 PM 38.4270 -105.2080 310° West 442 509 38,000  Level FlightAware ADS-B
Mon 01:36:35 PM 38.4740 -105.2800 310° West 442 509 38,000  Level FlightAware ADS-B
Mon 01:37:05 PM 38.5130 -105.3390 310° West 442 509 38,000  Level FlightAware ADS-B
Mon 01:37:43 PM 38.5630 -105.4160 310° West 441 507 38,000  Level FlightAware ADS-B
Mon 01:38:27 PM 38.6190 -105.5020 310° West 441 507 38,000  Level FlightAware ADS-B
Mon 01:39:05 PM 38.6640 -105.5720 309° West 441 507 38,000  Level FlightAware ADS-B
Mon 01:39:41 PM 38.7150 -105.6500 310° West 441 507 38,000  Level FlightAware ADS-B
Mon 01:40:19 PM 38.7640 -105.7260 310° West 442 509 38,000  Level FlightAware ADS-B
Mon 01:40:55 PM 38.8140 -105.8020 310° West 442 509 38,000  Level FlightAware ADS-B
Mon 01:41:27 PM 38.8550 -105.8670 309° West 443 510 38,000  Level FlightAware ADS-B
Mon 01:42:02 PM 38.8980 -105.9340 310° West 444 511 38,000  Level FlightAware ADS-B
Mon 01:42:33 PM 38.9400 -105.9990 310° West 443 510 38,000  Level FlightAware ADS-B
Mon 01:43:13 PM 38.9910 -106.0780 310° West 442 509 38,000  Level FlightAware ADS-B
Mon 01:43:48 PM 39.0370 -106.1500 309° West 441 507 38,000  Level FlightAware ADS-B
Mon 01:44:25 PM 39.0840 -106.2240 309° West 440 506 38,000  Level FlightAware ADS-B
Mon 01:44:56 PM 39.1230 -106.2870 309° West 441 507 38,000  Level FlightAware ADS-B
Mon 01:45:34 PM 39.1710 -106.3610 310° West 440 506 38,000  Level FlightAware ADS-B
Mon 01:46:09 PM 39.2150 -106.4310 309° West 440 506 38,000  Level FlightAware ADS-B
Mon 01:46:42 PM 39.2620 -106.5050 309° West 441 507 38,000  Level FlightAware ADS-B
Mon 01:47:19 PM 39.3080 -106.5790 309° West 441 507 38,000  Level FlightAware ADS-B
Mon 01:47:50 PM 39.3440 -106.6360 309° West 441 507 38,000  Level FlightAware ADS-B
Mon 01:48:27 PM 39.3960 -106.7190 309° West 441 507 38,000  Level FlightAware ADS-B
Mon 01:49:02 PM 39.4410 -106.7900 309° West 442 509 38,000  Level FlightAware ADS-B
Mon 01:49:38 PM 39.4800 -106.8530 309° West 442 509 38,000  Level FlightAware ADS-B
Mon 01:50:09 PM 39.5280 -106.9290 309° West 442 509 38,000  Level FlightAware ADS-B
Mon 01:50:45 PM 39.5740 -107.0030 309° West 442 509 38,000  Level FlightAware ADS-B
Mon 01:51:23 PM 39.6210 -107.0800 308° West 443 510 38,000  Level FlightAware ADS-B
Mon 01:51:56 PM 39.6590 -107.1420 309° West 444 511 38,000  Level FlightAware ADS-B
Mon 01:52:30 PM 39.7050 -107.2160 309° West 444 511 38,000  Level FlightAware ADS-B
Mon 01:53:10 PM 39.7560 -107.2990 309° West 444 511 38,000  Level FlightAware ADS-B
Mon 01:53:43 PM 39.7970 -107.3650 309° West 446 513 38,000  Level FlightAware ADS-B
Mon 01:54:18 PM 39.8450 -107.4450 308° West 447 514 38,000  Level FlightAware ADS-B
Mon 01:54:50 PM 39.8870 -107.5130 309° West 447 514 38,000 522 Level FlightAware ADS-B
Mon 01:55:27 PM 39.9300 -107.5830 309° West 444 511 38,600 930 Climbing FlightAware ADS-B
Mon 01:56:01 PM 39.9730 -107.6530 309° West 442 509 39,100 794 Climbing FlightAware ADS-B
Mon 01:56:35 PM 40.0200 -107.7310 308° West 442 509 39,500 583 Climbing FlightAware ADS-B
Mon 01:57:13 PM 40.0610 -107.7990 308° West 441 507 39,800 370 Climbing FlightAware ADS-B
Mon 01:57:56 PM 40.1130 -107.8840 309° West 443 510 40,000 164 Climbing FlightAware ADS-B
Mon 01:58:26 PM 40.1600 -107.9620 308° West 443 510 40,000  Level FlightAware ADS-B
Mon 01:59:06 PM 40.2110 -108.0470 308° West 443 510 40,000  Level FlightAware ADS-B
Mon 01:59:48 PM 40.2640 -108.1360 308° West 443 510 40,000  Level FlightAware ADS-B
Mon 02:00:20 PM 40.3030 -108.2010 308° West 443 510 40,000  Level FlightAware ADS-B
Mon 02:00:52 PM 40.3460 -108.2730 308° West 442 509 40,000  Level FlightAware ADS-B
Mon 02:01:28 PM 40.3770 -108.3260 308° West 442 509 40,000  Level FlightAware ADS-B
Mon 02:02:13 PM 40.4470 -108.4440 308° West 441 507 40,000  Level FlightAware ADS-B
Mon 02:02:48 PM 40.4820 -108.5020 308° West 441 507 40,000  Level FlightAware ADS-B
Mon 02:03:28 PM 40.5310 -108.5850 308° West 441 507 40,000  Level FlightAware ADS-B
Mon 02:04:15 PM 40.5980 -108.7000 308° West 438 504 40,000  Level FlightAware ADS-B
Mon 02:04:49 PM 40.6400 -108.7710 308° West 437 503 40,000  Level FlightAware ADS-B
Mon 02:05:19 PM 40.6770 -108.8340 308° West 436 502 40,000  Level FlightAware ADS-B
Mon 02:05:52 PM 40.7190 -108.9050 308° West 437 503 40,000  Level FlightAware ADS-B
Mon 02:06:32 PM 40.7680 -108.9890 308° West 435 501 40,000  Level FlightAware ADS-B
Mon 02:07:06 PM 40.8100 -109.0620 307° West 435 501 40,000  Level FlightAware ADS-B
Mon 02:07:41 PM 40.8530 -109.1360 308° West 434 499 40,000  Level FlightAware ADS-B
Mon 02:08:14 PM 40.8930 -109.2050 307° West 435 501 40,000  Level FlightAware ADS-B
Mon 02:08:59 PM 40.9310 -109.2720 307° West 434 499 40,000  Level FlightAware ADS-B
Mon 02:09:33 PM 40.9660 -109.3330 307° West 434 499 40,000  Level FlightAware ADS-B
Mon 02:10:09 PM 41.0030 -109.3980 307° West 434 499 40,000  Level FlightAware ADS-B
Mon 02:10:45 PM 41.0400 -109.4640 307° West 434 499 40,000  Level FlightAware ADS-B
Mon 02:11:19 PM 41.0750 -109.5250 307° West 434 499 40,000  Level FlightAware ADS-B
Mon 02:11:55 PM 41.1120 -109.5900 307° West 434 499 40,000  Level FlightAware ADS-B
Mon 02:12:32 PM 41.1500 -109.6570 307° West 434 499 40,000  Level FlightAware ADS-B
Mon 02:13:08 PM 41.1870 -109.7220 307° West 434 499 40,000  Level FlightAware ADS-B
Mon 02:13:45 PM 41.2250 -109.7890 307° West 434 499 40,000  Level FlightAware ADS-B
Mon 02:14:21 PM 41.2620 -109.8550 307° West 434 499 40,000  Level FlightAware ADS-B
Mon 02:14:57 PM 41.2990 -109.9200 307° West 434 499 40,000  Level FlightAware ADS-B
Mon 02:15:33 PM 41.3360 -109.9850 307° West 434 499 40,000  Level FlightAware ADS-B
Mon 02:16:06 PM 41.4670 -110.2130 308° West 439 505 40,000  Level FlightAware ADS-B
Mon 02:16:46 PM 41.5130 -110.2960 307° West 439 505 40,000  Level FlightAware ADS-B
Mon 02:17:20 PM 41.5550 -110.3710 307° West 439 505 40,000  Level FlightAware ADS-B
Mon 02:17:56 PM 41.5990 -110.4500 307° West 439 505 40,000  Level FlightAware ADS-B
Mon 02:18:31 PM 41.6390 -110.5220 307° West 439 505 40,000  Level FlightAware ADS-B
Mon 02:19:10 PM 41.6790 -110.5950 306° West 439 505 40,000  Level FlightAware ADS-B
Mon 02:19:21 PM 41.7020 -110.6360 307° West 441 507 40,000  Level FlightAware ADS-B
Mon 02:19:54 PM 41.7418 -110.7090 306° West 441 507 40,000  Level FlightAware ADS-B
Mon 02:20:29 PM 41.7844 -110.7860 307° West 440 506 40,000  Level FlightAware ADS-B
Mon 02:20:59 PM 41.8205 -110.8520 306° West 437 503 40,000  Level FlightAware ADS-B
Mon 02:21:30 PM 41.8564 -110.9180 306° West 436 502 40,000  Level FlightAware ADS-B
Mon 02:22:00 PM 41.8931 -110.9840 307° West 437 503 40,000  Level FlightAware ADS-B
Mon 02:22:30 PM 41.9289 -111.0500 306° West 437 503 40,000  Level FlightAware ADS-B
Mon 02:22:59 PM 41.9645 -111.1120 308° West 440 506 40,000  Level FlightAware ADS-B
Mon 02:23:08 PM 41.9770 -111.1280 316° Northwest 444 511 40,000  Level FlightAware ADS-B
Mon 02:23:28 PM 42.0081 -111.1660 318° Northwest 443 510 40,000  Level FlightAware ADS-B
Mon 02:24:05 PM 42.0650 -111.2320 319° Northwest 444 511 40,000  Level FlightAware ADS-B
Mon 02:24:35 PM 42.1119 -111.2860 320° Northwest 444 511 40,000  Level FlightAware ADS-B
Mon 02:25:05 PM 42.1593 -111.3400 320° Northwest 444 511 40,000  Level FlightAware ADS-B
Mon 02:25:39 PM 42.2121 -111.4000 320° Northwest 444 511 40,000  Level FlightAware ADS-B
Mon 02:26:12 PM 42.2640 -111.4590 320° Northwest 443 510 40,000  Level FlightAware ADS-B
Mon 02:26:24 PM 42.2830 -111.4800 321° Northwest 444 511 40,000  Level FlightAware ADS-B
Mon 02:27:06 PM 42.3488 -111.5540 320° Northwest 442 509 40,000  Level FlightAware ADS-B
Mon 02:27:37 PM 42.3969 -111.6080 320° Northwest 442 509 40,000  Level FlightAware ADS-B
Mon 02:28:15 PM 42.4572 -111.6750 321° Northwest 441 507 40,000  Level FlightAware ADS-B
Mon 02:28:45 PM 42.5044 -111.7280 320° Northwest 441 507 40,000  Level FlightAware ADS-B
Mon 02:29:23 PM 42.5460 -111.7760 320° Northwest 441 507 40,000  Level FlightAware ADS-B
Mon 02:29:41 PM 42.5892 -111.8320 316° Northwest 441 507 40,000  Level FlightAware ADS-B
Mon 02:30:12 PM 42.6366 -111.8900 318° Northwest 444 511 40,000  Level FlightAware ADS-B
Mon 02:30:42 PM 42.6828 -111.9460 318° Northwest 448 516 40,000  Level FlightAware ADS-B
Mon 02:31:13 PM 42.7300 -112.0040 318° Northwest 449 517 40,000  Level FlightAware ADS-B
Mon 02:31:44 PM 42.7781 -112.0630 318° Northwest 450 518 40,000  Level FlightAware ADS-B
Mon 02:32:28 PM 42.8432 -112.1490 316° Northwest 449 517 40,000  Level FlightAware ADS-B
Mon 02:33:02 PM 42.8370 -112.1080 102° East 441 507 40,000  Level FlightAware ADS-B
Mon 02:33:17 PM 42.9141 -112.2470 307° West 448 516 40,000  Level FlightAware ADS-B
Mon 02:33:52 PM 42.9568 -112.3230 308° West 439 505 40,000  Level FlightAware ADS-B
Mon 02:34:50 PM 42.9800 -112.2730 58° Northeast 441 507 40,000  Level FlightAware ADS-B
Mon 02:35:27 PM 43.0300 -112.3290 321° Northwest 441 507 40,000  Level FlightAware ADS-B
Mon 02:36:03 PM 43.0770 -112.3840 319° Northwest 441 507 40,000  Level FlightAware ADS-B
Mon 02:36:39 PM 43.1250 -112.4390 320° Northwest 441 507 40,000  Level FlightAware ADS-B
Mon 02:37:04 PM 43.1637 -112.7740 279° West 439 505 40,000  Level FlightAware ADS-B
Mon 02:37:35 PM 43.1972 -112.8480 302° West 438 504 40,000  Level FlightAware ADS-B
Mon 02:38:06 PM 43.2308 -112.9210 302° West 438 504 40,000  Level FlightAware ADS-B
Mon 02:38:37 PM 43.2633 -112.9930 302° West 439 505 40,000  Level FlightAware ADS-B
Mon 02:39:07 PM 43.2958 -113.0650 302° West 439 505 40,000  Level FlightAware ADS-B
Mon 02:39:45 PM 43.3365 -113.1550 302° West 439 505 40,000  Level FlightAware ADS-B
Mon 02:40:16 PM 43.3689 -113.2260 302° West 440 506 40,000  Level FlightAware ADS-B
Mon 02:40:51 PM 43.4060 -113.3090 302° West 439 505 40,000  Level FlightAware ADS-B
Mon 02:41:24 PM 43.4410 -113.3880 301° West 437 503 40,000  Level FlightAware ADS-B
Mon 02:41:56 PM 43.4750 -113.4630 302° West 438 504 40,000  Level FlightAware ADS-B
Mon 02:42:33 PM 43.5130 -113.5500 301° West 437 503 40,000  Level FlightAware ADS-B
Mon 02:43:10 PM 43.5520 -113.6370 302° West 438 504 40,000  Level FlightAware ADS-B
Mon 02:43:42 PM 43.5870 -113.7150 302° West 437 503 40,000  Level FlightAware ADS-B
Mon 02:44:18 PM 43.6250 -113.8010 301° West 437 503 40,000  Level FlightAware ADS-B
Mon 02:45:01 PM 43.6696 -113.9030 301° West 438 504 40,000  Level FlightAware ADS-B
Mon 02:45:31 PM 43.7010 -113.9740 301° West 439 505 40,000  Level FlightAware ADS-B
Mon 02:46:04 PM 43.7360 -114.0540 301° West 439 505 40,000  Level FlightAware ADS-B
Mon 02:46:40 PM 43.7740 -114.1400 301° West 438 504 40,000  Level FlightAware ADS-B
Mon 02:47:14 PM 43.8090 -114.2220 301° West 440 506 40,000  Level FlightAware ADS-B
Mon 02:47:47 PM 43.8430 -114.3000 301° West 439 505 40,000  Level FlightAware ADS-B
Mon 02:48:24 PM 43.8820 -114.3910 301° West 439 505 40,000  Level FlightAware ADS-B
Mon 02:49:00 PM 43.9190 -114.4770 301° West 439 505 40,000  Level FlightAware ADS-B
Mon 02:49:32 PM 43.9530 -114.5540 302° West 438 504 40,000  Level FlightAware ADS-B
Mon 02:50:10 PM 43.9920 -114.6450 301° West 438 504 40,000  Level FlightAware ADS-B
Mon 02:50:43 PM 44.0250 -114.7240 300° West 438 504 40,000  Level FlightAware ADS-B
Mon 02:51:22 PM 44.0670 -114.8210 301° West 438 504 40,000  Level FlightAware ADS-B
Mon 02:51:54 PM 44.0990 -114.8960 301° West 438 504 40,000  Level FlightAware ADS-B
Mon 02:52:30 PM 44.1360 -114.9840 300° West 440 506 40,000  Level FlightAware ADS-B
Mon 02:53:04 PM 44.1710 -115.0670 300° West 440 506 40,000  Level FlightAware ADS-B
Mon 02:53:40 PM 44.2090 -115.1560 301° West 441 507 40,000  Level FlightAware ADS-B
Mon 02:54:14 PM 44.2430 -115.2380 300° West 440 506 40,000  Level FlightAware ADS-B
Mon 02:54:50 PM 44.2800 -115.3260 300° West 440 506 40,000  Level FlightAware ADS-B
Mon 02:55:26 PM 44.3170 -115.4150 300° West 440 506 40,000  Level FlightAware ADS-B
Mon 02:55:58 PM 44.3500 -115.4920 301° West 440 506 40,000  Level FlightAware ADS-B
Mon 02:56:34 PM 44.3870 -115.5810 300° West 439 505 40,000  Level FlightAware ADS-B
Mon 02:57:10 PM 44.4230 -115.6690 300° West 439 505 40,000  Level FlightAware ADS-B
Mon 02:57:44 PM 44.4580 -115.7530 300° West 438 504 40,000  Level FlightAware ADS-B
Mon 02:58:18 PM 44.4920 -115.8370 300° West 435 501 40,000  Level FlightAware ADS-B
Mon 02:58:56 PM 44.5290 -115.9270 300° West 436 502 40,000  Level FlightAware ADS-B
Mon 02:59:30 PM 44.5640 -116.0130 300° West 438 504 40,000  Level FlightAware ADS-B
Mon 03:00:04 PM 44.5980 -116.0960 300° West 438 504 40,000  Level FlightAware ADS-B
Mon 03:00:42 PM 44.6360 -116.1910 299° West 439 505 40,000  Level FlightAware ADS-B
Mon 03:01:09 PM 44.6620 -116.2540 300° West 441 507 40,000  Level FlightAware ADS-B
Mon 03:01:50 PM 44.7050 -116.3590 300° West 441 507 40,000  Level FlightAware ADS-B
Mon 03:02:22 PM 44.7370 -116.4390 299° West 441 507 40,000  Level FlightAware ADS-B
Mon 03:02:58 PM 44.7730 -116.5290 299° West 441 507 40,000  Level FlightAware ADS-B
Mon 03:03:34 PM 44.8090 -116.6200 299° West 443 510 40,000  Level FlightAware ADS-B
Mon 03:04:10 PM 44.8450 -116.7090 300° West 444 511 40,000  Level FlightAware ADS-B
Mon 03:04:42 PM 44.8770 -116.7890 299° West 441 507 40,000  Level FlightAware ADS-B
Mon 03:05:18 PM 44.9130 -116.8800 299° West 439 505 40,000  Level FlightAware ADS-B
Mon 03:05:56 PM 44.9510 -116.9760 299° West 439 505 40,000  Level FlightAware ADS-B
Mon 03:06:32 PM 44.9860 -117.0650 299° West 439 505 40,000  Level FlightAware ADS-B
Mon 03:07:04 PM 45.0170 -117.1450 299° West 439 505 40,000  Level FlightAware ADS-B
Mon 03:07:40 PM 45.0520 -117.2350 299° West 439 505 40,000  Level FlightAware ADS-B
Mon 03:08:14 PM 45.0860 -117.3200 300° West 441 507 40,000  Level FlightAware ADS-B
Mon 03:08:50 PM 45.1210 -117.4120 298° West 442 509 40,000  Level FlightAware ADS-B
Mon 03:09:27 PM 45.1580 -117.5050 299° West 444 511 40,000  Level FlightAware ADS-B
Mon 03:09:58 PM 45.1940 -117.5830 303° West 452 520 40,000  Level FlightAware ADS-B
Mon 03:10:36 PM 45.2400 -117.6730 306° West 450 518 40,000  Level FlightAware ADS-B
Mon 03:11:02 PM 45.2710 -117.7350 305° West 449 517 40,000  Level FlightAware ADS-B
Mon 03:11:56 PM 45.3350 -117.8620 306° West 448 516 40,000  Level FlightAware ADS-B
Mon 03:12:28 PM 45.3730 -117.9390 305° West 448 516 40,000  Level FlightAware ADS-B
Mon 03:13:07 PM 45.4200 -118.0330 305° West 445 512 40,000  Level FlightAware ADS-B
Mon 03:13:38 PM 45.4560 -118.1060 305° West 445 512 40,000  Level FlightAware ADS-B
Mon 03:14:10 PM 45.4950 -118.1850 305° West 444 511 40,000  Level FlightAware ADS-B
Mon 03:14:49 PM 45.5340 -118.2650 305° West 444 511 40,000  Level FlightAware ADS-B
Mon 03:15:22 PM 45.5800 -118.3570 306° West 444 511 40,000  Level FlightAware ADS-B
Mon 03:15:59 PM 45.6170 -118.4320 305° West 444 511 40,000  Level FlightAware ADS-B
Mon 03:16:36 PM 45.6540 -118.5080 305° West 444 511 40,000  Level FlightAware ADS-B
Mon 03:17:11 PM 45.7080 -118.6170 305° West 444 511 40,000  Level FlightAware ADS-B
Mon 03:17:50 PM 45.7540 -118.7120 305° West 446 513 40,000  Level FlightAware ADS-B
Mon 03:18:24 PM 45.7930 -118.7930 305° West 446 513 40,000  Level FlightAware ADS-B
Mon 03:19:02 PM 45.8380 -118.8850 305° West 448 516 40,000  Level FlightAware ADS-B
Mon 03:19:38 PM 45.8810 -118.9740 305° West 449 517 40,000  Level FlightAware ADS-B
Mon 03:20:10 PM 45.9190 -119.0540 304° West 449 517 40,000  Level FlightAware ADS-B
Mon 03:20:56 PM 45.9690 -119.1580 305° West 449 517 40,000  Level FlightAware ADS-B
Mon 03:21:32 PM 46.0040 -119.2340 304° West 449 517 40,000  Level FlightAware ADS-B
Mon 03:21:56 PM 46.0280 -119.2850 304° West 449 517 40,000  Level FlightAware ADS-B
Mon 03:22:56 PM 46.1070 -119.4500 305° West 451 519 40,000  Level FlightAware ADS-B
Mon 03:23:32 PM 46.1430 -119.5270 304° West 451 519 40,000  Level FlightAware ADS-B
Mon 03:24:09 PM 46.1800 -119.6050 304° West 451 519 40,000  Level FlightAware ADS-B
Mon 03:24:45 PM 46.2160 -119.6820 304° West 451 519 40,000  Level FlightAware ADS-B
Mon 03:25:22 PM 46.2520 -119.7600 304° West 451 519 40,000  Level FlightAware ADS-B
Mon 03:25:58 PM 46.2880 -119.8370 304° West 451 519 40,000 -2,571 Level FlightAware ADS-B
Mon 03:26:18 PM 46.3536 -119.9740 305° West 468 539 37,600 -3,396 Descending FlightAware ADS-B
Mon 03:26:51 PM 46.3929 -120.0590 304° West 463 533 37,000 -649 Descending FlightAware ADS-B
Mon 03:27:32 PM 46.4360 -120.1550 303° West 464 534 36,800 -160 Descending FlightAware ADS-B
Mon 03:28:06 PM 46.4700 -120.2300 303° West 464 534 36,800 -1,594 Level FlightAware ADS-B
Mon 03:28:36 PM 46.5180 -120.3310 305° West 468 539 35,100 -3,077 Descending FlightAware ADS-B
Mon 03:29:24 PM 46.5750 -120.4560 304° West 473 544 32,800 -1,605 Descending FlightAware ADS-B
Mon 03:30:02 PM 46.6140 -120.5430 303° West 473 544 32,800 -3,188 Level FlightAware ADS-B
Mon 03:30:28 PM 46.6577 -120.6280 307° West 480 552 29,400 -4,929 Descending FlightAware ADS-B
Mon 03:30:58 PM 46.6957 -120.7070 305° West 470 541 28,200 500 Descending FlightAware ADS-B
Mon 03:31:52 PM 46.7450 -120.8100 305° West 485 558 30,100 -2,338 Climbing FlightAware ADS-B
Mon 03:32:15 PM 46.7879 -120.9020 304° West 446 513 25,200 -6,792 Descending FlightAware ADS-B
Mon 03:32:45 PM 46.8226 -120.9760 304° West 437 503 24,100 -2,164 Descending FlightAware ADS-B
Mon 03:33:16 PM 46.8569 -121.0490 305° West 430 495 23,000 -2,164 Descending FlightAware ADS-B
Mon 03:33:46 PM 46.8903 -121.1200 305° West 422 486 21,900 -2,200 Descending FlightAware ADS-B
Mon 03:34:16 PM 46.9231 -121.1900 304° West 413 475 20,800 -2,226 Descending FlightAware ADS-B
Mon 03:34:48 PM 46.9570 -121.2630 304° West 405 466 19,600 -2,226 Descending FlightAware ADS-B
Mon 03:35:18 PM 46.9887 -121.3310 304° West 402 463 18,500 -2,262 Descending FlightAware ADS-B
Mon 03:35:49 PM 47.0202 -121.3990 304° West 396 456 17,300 -2,262 Descending FlightAware ADS-B
Mon 03:36:19 PM 47.0509 -121.4650 304° West 390 449 16,200 -1,400 Descending FlightAware ADS-B
Mon 03:36:49 PM 47.0804 -121.5290 304° West 367 422 15,900 -724 Descending FlightAware ADS-B
Mon 03:37:17 PM 47.1071 -121.5870 304° West 362 417 15,500 -724 Descending FlightAware ADS-B
Mon 03:37:47 PM 47.1349 -121.6480 304° West 359 413 15,200 -885 Descending FlightAware ADS-B
Mon 03:38:18 PM 47.1625 -121.7080 304° West 352 405 14,600 -1,377 Descending FlightAware ADS-B
Mon 03:38:48 PM 47.1894 -121.7660 304° West 343 395 13,800 -1,600 Descending FlightAware ADS-B
Mon 03:39:18 PM 47.2157 -121.8240 304° West 338 389 13,000 -1,700 Descending FlightAware ADS-B
Mon 03:39:48 PM 47.2420 -121.8820 304° West 338 389 12,100 -1,770 Descending FlightAware ADS-B
Mon 03:40:19 PM 47.2685 -121.9400 304° West 334 384 11,200 -1,279 Descending FlightAware ADS-B
Mon 03:40:49 PM 47.2939 -121.9960 304° West 316 364 10,800 -700 Descending FlightAware ADS-B
Mon 03:41:19 PM 47.3173 -122.0480 304° West 301 346 10,500 -800 Descending FlightAware ADS-B
Mon 03:41:49 PM 47.3408 -122.1000 304° West 307 353 10,000 -638 Descending FlightAware ADS-B
Mon 03:42:06 PM 47.3536 -122.1280 304° West 308 354 10,000  Level FlightAware ADS-B
Mon 03:42:24 PM 47.3685 -122.1610 304° West 308 354 10,000  Level FlightAware ADS-B
Mon 03:42:31 PM 47.3748 -122.1720 310° West 309 356 10,000  Level FlightAware ADS-B
Mon 03:42:36 PM 47.3793 -122.1790 314° West 309 356 10,000  Level FlightAware ADS-B
Mon 03:42:45 PM 47.3896 -122.1910 322° Northwest 309 356 10,000  Level FlightAware ADS-B
Mon 03:42:50 PM 47.3954 -122.1960 330° Northwest 310 357 10,000  Level FlightAware ADS-B
Mon 03:42:56 PM 47.4034 -122.2020 333° Northwest 310 357 10,000  Level FlightAware ADS-B
Mon 03:43:00 PM 47.4090 -122.2050 340° North 311 358 10,000  Level FlightAware ADS-B
Mon 03:43:06 PM 47.4174 -122.2090 342° North 311 358 10,000 -545 Level FlightAware ADS-B
Mon 03:43:11 PM 47.4242 -122.2110 349° North 311 358 9,900 -750 Descending FlightAware ADS-B
Mon 03:43:14 PM 47.4285 -122.2120 351° North 312 359 9,900 -1,000 Level FlightAware ADS-B
Mon 03:43:17 PM 47.4327 -122.2120 360° North 312 359 9,800 -857 Descending FlightAware ADS-B
Mon 03:43:21 PM 47.4389 -122.2120 360° North 312 359 9,800 -300 Level FlightAware ADS-B
Mon 03:43:37 PM 47.4608 -122.2110 North 310 357 9,700 -968 Descending FlightAware ADS-B
Mon 03:43:52 PM 47.4819 -122.2100 North 303 349 9,300 -1,600 Descending FlightAware ADS-B
Mon 03:44:07 PM 47.5030 -122.2090 North 299 344 8,900 -1,714 Descending FlightAware ADS-B
Mon 03:44:20 PM 47.5210 -122.2080 North 295 339 8,500 -1,750 Descending FlightAware ADS-B
Mon 03:44:31 PM 47.5366 -122.2080 360° North 293 337 8,200 -1,920 Descending FlightAware ADS-B
Mon 03:44:45 PM 47.5551 -122.2060 North 293 337 7,700 -2,069 Descending FlightAware ADS-B
Mon 03:45:00 PM 47.5747 -122.2040 North 295 339 7,200 -2,143 Descending FlightAware ADS-B
Mon 03:45:13 PM 47.5935 -122.2020 North 292 336 6,700 -1,846 Descending FlightAware ADS-B
Mon 03:45:26 PM 47.6103 -122.2010 North 287 330 6,400 -1,615 Descending FlightAware ADS-B
Mon 03:45:39 PM 47.6278 -122.1990 North 283 326 6,000 -1,778 Descending FlightAware ADS-B
Mon 03:45:53 PM 47.6454 -122.1980 North 279 321 5,600 -1,655 Descending FlightAware ADS-B
Mon 03:46:08 PM 47.6650 -122.1960 North 278 320 5,200 -1,200 Descending FlightAware ADS-B
Mon 03:46:23 PM 47.6837 -122.1950 North 277 319 5,000 -632 Descending FlightAware ADS-B
Mon 03:46:27 PM 47.6889 -122.1950 360° North 277 319 5,000  Level FlightAware ADS-B
Mon 03:46:31 PM 47.6934 -122.1960 351° North 276 318 5,000  Level FlightAware ADS-B
Mon 03:46:34 PM 47.6982 -122.1980 344° North 276 318 5,000  Level FlightAware ADS-B
Mon 03:46:37 PM 47.7019 -122.2000 340° North 274 315 5,000 -857 Level FlightAware ADS-B
Mon 03:46:41 PM 47.7064 -122.2030 336° Northwest 273 314 4,900 -2,250 Descending FlightAware ADS-B
Mon 03:46:45 PM 47.7106 -122.2070 327° Northwest 273 314 4,700 -2,250 Descending FlightAware ADS-B
Mon 03:46:49 PM 47.7139 -122.2110 321° Northwest 274 315 4,600 -1,714 Descending FlightAware ADS-B
Mon 03:46:52 PM 47.7172 -122.2150 321° Northwest 277 319 4,500 -1,714 Descending FlightAware ADS-B
Mon 03:46:56 PM 47.7206 -122.2210 310° West 278 320 4,400 -2,000 Descending FlightAware ADS-B
Mon 03:47:01 PM 47.7241 -122.2290 303° West 278 320 4,200 -1,800 Descending FlightAware ADS-B
Mon 03:47:06 PM 47.7264 -122.2370 293° West 278 320 4,100 -750 Descending FlightAware ADS-B
Mon 03:47:09 PM 47.7275 -122.2430 285° West 277 319 4,100 -1,000 Level FlightAware ADS-B
Mon 03:47:12 PM 47.7281 -122.2500 277° West 275 316 4,000 -667 Descending FlightAware ADS-B
Mon 03:47:18 PM 47.7279 -122.2610 268° West 274 315 4,000  Level FlightAware ADS-B
Mon 03:47:24 PM 47.7262 -122.2710 256° West 266 306 4,000  Level FlightAware ADS-B
Mon 03:47:28 PM 47.7240 -122.2780 245° Southwest 265 305 4,000  Level FlightAware ADS-B
Mon 03:47:32 PM 47.7220 -122.2830 239° Southwest 264 304 4,000  Level FlightAware ADS-B
Mon 03:47:35 PM 47.7190 -122.2880 228° Southwest 263 303 4,000  Level FlightAware ADS-B
Mon 03:47:38 PM 47.7163 -122.2920 225° Southwest 262 302 4,000  Level FlightAware ADS-B
Mon 03:47:43 PM 47.7112 -122.2970 213° Southwest 262 302 4,000  Level FlightAware ADS-B
Mon 03:47:47 PM 47.7075 -122.3000 209° Southwest 262 302 4,000  Level FlightAware ADS-B
Mon 03:47:51 PM 47.7031 -122.3030 205° Southwest 261 300 4,000  Level FlightAware ADS-B
Mon 03:47:54 PM 47.6990 -122.3040 189° South 257 296 4,000  Level FlightAware ADS-B
Mon 03:47:57 PM 47.6954 -122.3060 201° Southwest 253 291 4,000  Level FlightAware ADS-B
Mon 03:48:02 PM 47.6907 -122.3070 188° South 249 287 4,000  Level FlightAware ADS-B
Mon 03:48:05 PM 47.6867 -122.3070 180° South 245 282 4,000  Level FlightAware ADS-B
Mon 03:48:08 PM 47.6834 -122.3070 180° South 241 277 4,000  Level FlightAware ADS-B
Mon 03:48:12 PM 47.6788 -122.3070 180° South 237 273 4,000  Level FlightAware ADS-B
Mon 03:48:27 PM 47.6627 -122.3060 178° South 226 260 4,000  Level FlightAware ADS-B
Mon 03:48:38 PM 47.6514 -122.3060 180° South 225 259 4,000 -667 Level FlightAware ADS-B
Mon 03:48:54 PM 47.6353 -122.3060 180° South 225 259 3,700 -1,200 Descending FlightAware ADS-B
Mon 03:49:08 PM 47.6205 -122.3060 180° South 220 253 3,400 -1,241 Descending FlightAware ADS-B
Mon 03:49:23 PM 47.6052 -122.3070 183° South 214 246 3,100 -1,071 Descending FlightAware ADS-B
Mon 03:49:36 PM 47.5934 -122.3070 180° South 209 241 2,900 -1,000 Descending FlightAware ADS-B
Mon 03:49:47 PM 47.5828 -122.3070 180° South 204 235 2,700 -900 Descending FlightAware ADS-B
Mon 03:49:56 PM 47.5737 -122.3070 180° South 201 231 2,600 -960 Descending FlightAware ADS-B
Mon 03:50:12 PM 47.5594 -122.3070 180° South 199 229 2,300 -1,154 Descending FlightAware ADS-B
Mon 03:50:22 PM 47.5501 -122.3070 180° South 197 227 2,100 -960 Descending FlightAware ADS-B
Mon 03:50:37 PM 47.5366 -122.3070 180° South 192 221 1,900 -1,000 Descending FlightAware ADS-B
Mon 03:50:46 PM 47.5290 -122.3070 180° South 181 208 1,700 -1,200 Descending FlightAware ADS-B
Mon 03:50:57 PM 47.5197 -122.3080 184° South 174 200 1,500 -857 Descending FlightAware ADS-B
Mon 03:51:07 PM 47.5120 -122.3080 180° South 168 193 1,400 -947 Descending FlightAware ADS-B
Mon 03:51:16 PM 47.5049 -122.3070 175° South 164 189 1,200 -1,059 Descending FlightAware ADS-B
Mon 03:51:24 PM 47.4997 -122.3070 180° South 161 185 1,100 -783 Descending FlightAware ADS-B
Mon 03:51:39 PM 47.4886 -122.3080 183° South 159 183 900 -545 Descending FlightAware ADS-B
Mon 03:52:41 PM 47.4469 -122.3086 183° South 159 183 400 -484 Descending Seattle Center

Login

Don't have an account? Register now (free) for customized features, flight alerts, and more!